createdAt,value
2022-08-05T00:01:48.792Z,3.17
2022-08-05T00:04:55.579Z,2.88
2022-08-05T00:08:01.599Z,2.72
2022-08-05T00:11:30.270Z,3.38
2022-08-05T00:14:33.922Z,2.53
2022-08-05T00:17:38.667Z,3.40
2022-08-05T00:20:44.862Z,3.50
2022-08-05T00:24:04.998Z,3.08
2022-08-05T00:27:14.107Z,3.22
2022-08-05T00:30:20.067Z,2.92
2022-08-05T00:34:56.660Z,3.38
2022-08-05T00:37:11.666Z,3.55
2022-08-05T00:40:26.960Z,3.30
2022-08-05T00:43:46.590Z,2.90
2022-08-05T00:46:54.121Z,3.28
2022-08-05T00:50:05.987Z,3.50
2022-08-05T00:56:33.834Z,4.45
2022-08-05T00:59:44.643Z,4.18
2022-08-05T01:02:50.165Z,4.28
2022-08-05T01:05:54.501Z,4.40
2022-08-05T01:09:00.254Z,4.53
2022-08-05T01:12:18.826Z,4.55
2022-08-05T01:15:35.656Z,4.00
2022-08-05T01:20:00.681Z,4.55
2022-08-05T01:23:22.890Z,3.50
2022-08-05T01:27:00.984Z,4.20
2022-08-05T01:30:34.048Z,3.80
2022-08-05T01:33:49.156Z,4.50
2022-08-05T01:37:03.982Z,4.03
2022-08-05T01:40:10.923Z,4.30
2022-08-05T01:43:22.206Z,3.97
2022-08-05T01:46:43.032Z,3.83
2022-08-05T01:50:01.809Z,3.85
2022-08-05T01:53:10.879Z,3.42
2022-08-05T01:58:10.721Z,3.38
2022-08-05T01:59:47.250Z,3.67
2022-08-05T02:02:59.813Z,3.17
2022-08-05T02:06:33.316Z,3.97
2022-08-05T02:09:33.023Z,4.18
2022-08-05T02:12:54.543Z,3.25
2022-08-05T02:16:06.762Z,3.50
2022-08-05T02:19:34.446Z,3.38
2022-08-05T02:22:44.820Z,3.97
2022-08-05T02:25:53.265Z,3.72
2022-08-05T02:28:58.611Z,2.75
2022-08-05T02:32:05.145Z,2.90
2022-08-05T02:35:27.663Z,2.15
2022-08-05T02:38:35.095Z,2.50
2022-08-05T02:41:43.405Z,1.90
2022-08-05T02:45:06.123Z,2.22
2022-08-05T02:48:12.888Z,1.67
2022-08-05T02:51:19.380Z,1.45
2022-08-05T02:54:34.928Z,1.25
2022-08-05T02:58:19.949Z,1.75
2022-08-05T03:01:05.848Z,1.60
2022-08-05T03:04:16.101Z,1.40
2022-08-05T03:07:59.359Z,1.58
2022-08-05T03:11:01.044Z,1.92
2022-08-05T03:14:09.966Z,1.48
2022-08-05T03:17:16.782Z,1.40
2022-08-05T03:20:19.872Z,1.37
2022-08-05T03:23:45.879Z,1.40
2022-08-05T03:26:49.589Z,1.25
2022-08-05T03:30:08.555Z,2.00
2022-08-05T03:33:12.523Z,1.70
2022-08-05T03:36:16.979Z,1.30
2022-08-05T03:39:59.145Z,1.52
2022-08-05T03:43:58.240Z,1.42
2022-08-05T03:46:29.797Z,1.42
2022-08-05T03:49:51.993Z,1.58
2022-08-05T03:55:34.573Z,1.70
2022-08-05T03:56:37.581Z,1.70
2022-08-05T03:59:54.445Z,1.73
2022-08-05T04:03:04.318Z,1.65
2022-08-05T04:06:09.198Z,1.85
2022-08-05T04:09:14.137Z,1.80
2022-08-05T04:12:25.213Z,1.83
2022-08-05T04:15:32.873Z,1.83
2022-08-05T04:18:37.300Z,2.10
2022-08-05T04:22:05.819Z,2.58
2022-08-05T04:25:07.384Z,2.35
2022-08-05T04:28:17.284Z,2.75
2022-08-05T04:31:20.972Z,1.75
2022-08-05T04:34:32.465Z,1.95
2022-08-05T04:38:00.561Z,2.10
2022-08-05T04:41:18.694Z,2.38
2022-08-05T04:44:29.243Z,2.08
2022-08-05T04:47:38.727Z,2.60
2022-08-05T04:51:02.437Z,2.40
2022-08-05T04:54:07.041Z,2.45
2022-08-05T04:57:20.136Z,2.22
2022-08-05T05:00:25.526Z,1.80
2022-08-05T05:03:28.648Z,1.77
2022-08-05T05:06:49.320Z,2.22
2022-08-05T05:10:04.305Z,1.85
2022-08-05T05:13:07.572Z,1.48
2022-08-05T05:16:12.471Z,2.00
2022-08-05T05:19:23.457Z,1.65
2022-08-05T05:22:30.210Z,2.05
2022-08-05T05:25:40.910Z,1.65
2022-08-05T05:28:44.750Z,1.55
2022-08-05T05:31:49.572Z,1.52
2022-08-05T05:34:54.425Z,1.48
2022-08-05T05:38:01.562Z,1.40
2022-08-05T05:41:07.702Z,1.17
2022-08-05T05:44:36.984Z,1.30
2022-08-05T05:48:08.142Z,1.17
2022-08-05T05:51:15.803Z,1.52
2022-08-05T05:54:19.606Z,1.50
2022-08-05T05:57:23.396Z,1.55
2022-08-05T06:00:27.637Z,1.67
2022-08-05T06:03:53.624Z,1.55
2022-08-05T06:07:01.416Z,1.48
2022-08-05T06:10:10.002Z,1.38
2022-08-05T06:13:13.555Z,1.23
2022-08-05T06:16:28.979Z,1.10
2022-08-05T06:19:36.433Z,1.27
2022-08-05T06:22:40.704Z,1.42
2022-08-05T06:26:13.909Z,1.38
2022-08-05T06:29:43.162Z,1.60
2022-08-05T06:32:31.926Z,1.45
2022-08-05T06:36:04.164Z,1.50
2022-08-05T06:39:00.695Z,1.60
2022-08-05T06:42:04.386Z,1.75
2022-08-05T06:45:09.662Z,1.45
2022-08-05T06:48:55.304Z,1.85
2022-08-05T06:51:49.647Z,1.10
2022-08-05T06:54:53.412Z,1.25
2022-08-05T06:58:03.070Z,1.60
2022-08-05T07:01:20.742Z,1.08
2022-08-05T07:04:24.348Z,1.38
2022-08-05T07:08:10.708Z,1.25
2022-08-05T07:11:15.282Z,1.00
2022-08-05T07:14:37.514Z,1.15
2022-08-05T07:18:02.277Z,1.42
2022-08-05T07:21:07.897Z,1.27
2022-08-05T07:24:14.734Z,1.08
2022-08-05T07:27:17.958Z,0.95
2022-08-05T07:30:28.230Z,0.77
2022-08-05T07:33:37.233Z,1.15
2022-08-05T07:36:40.670Z,1.20
2022-08-05T07:40:04.759Z,1.30
2022-08-05T07:43:20.266Z,0.90
2022-08-05T07:46:26.088Z,0.80
2022-08-05T07:49:29.536Z,0.60
2022-08-05T07:52:32.733Z,0.80
2022-08-05T07:56:04.938Z,0.73
2022-08-05T08:02:03.764Z,0.80
2022-08-05T08:05:08.829Z,0.70
2022-08-05T08:08:15.534Z,0.80
2022-08-05T08:14:31.002Z,0.68
2022-08-05T08:17:35.380Z,0.60
2022-08-05T08:21:00.312Z,1.10
2022-08-05T08:24:05.645Z,0.60
2022-08-05T08:27:11.906Z,0.70
2022-08-05T08:30:30.075Z,0.75
2022-08-05T08:33:40.824Z,0.70
2022-08-05T08:36:47.361Z,0.80
2022-08-05T08:40:29.773Z,0.95
2022-08-05T08:45:23.433Z,0.65
2022-08-05T08:47:47.590Z,0.82
2022-08-05T08:50:52.065Z,0.73
2022-08-05T08:53:52.506Z,0.63
2022-08-05T08:57:00.005Z,1.30
2022-08-05T09:00:06.373Z,0.63
2022-08-05T09:03:11.263Z,0.65
2022-08-05T09:06:17.168Z,0.88
2022-08-05T09:09:23.502Z,0.70
2022-08-05T09:12:30.166Z,0.80
2022-08-05T09:15:36.994Z,0.75
2022-08-05T09:18:42.886Z,0.60
2022-08-05T09:22:22.912Z,0.70
2022-08-05T09:25:13.478Z,0.75
2022-08-05T09:28:23.324Z,0.75
2022-08-05T09:32:42.204Z,0.60
2022-08-05T09:34:53.873Z,0.73
2022-08-05T09:38:16.772Z,0.75
2022-08-05T09:41:21.696Z,0.47
2022-08-05T09:44:40.345Z,0.90
2022-08-05T09:47:55.475Z,0.60
2022-08-05T09:51:03.127Z,0.63
2022-08-05T09:54:08.582Z,0.57
2022-08-05T09:57:35.251Z,1.10
2022-08-05T10:00:55.207Z,0.60
2022-08-05T10:04:10.135Z,1.10
2022-08-05T10:07:20.873Z,0.45
2022-08-05T10:10:50.369Z,0.80
2022-08-05T10:13:58.711Z,0.70
2022-08-05T10:17:37.979Z,0.50
2022-08-05T10:20:47.867Z,0.90
2022-08-05T10:24:17.755Z,0.50
2022-08-05T10:27:22.043Z,0.55
2022-08-05T10:32:47.440Z,0.90
2022-08-05T10:33:54.238Z,0.67
2022-08-05T10:36:59.918Z,0.90
2022-08-05T10:40:35.476Z,0.70
2022-08-05T10:43:51.944Z,0.50
2022-08-05T10:46:57.559Z,0.98
2022-08-05T10:50:31.834Z,1.25
2022-08-05T10:53:45.430Z,0.80
2022-08-05T10:56:52.969Z,0.60
2022-08-05T11:00:20.218Z,0.60
2022-08-05T11:03:26.921Z,0.43
2022-08-05T11:06:30.864Z,0.70
2022-08-05T11:09:48.618Z,0.50
2022-08-05T11:12:54.917Z,1.08
2022-08-05T11:16:23.310Z,0.63
2022-08-05T11:20:17.546Z,0.52
2022-08-05T11:24:05.352Z,0.85
2022-08-05T11:27:51.655Z,0.88
2022-08-05T11:31:57.768Z,0.70
2022-08-05T11:34:54.436Z,0.63
2022-08-05T11:38:30.851Z,0.57
2022-08-05T11:41:58.250Z,1.00
2022-08-05T11:44:54.408Z,0.60
2022-08-05T11:47:58.658Z,0.68
2022-08-05T11:51:03.147Z,1.00
2022-08-05T11:54:07.067Z,0.95
2022-08-05T11:57:25.516Z,0.70
2022-08-05T12:00:38.115Z,0.60
2022-08-05T12:03:56.085Z,0.90
2022-08-05T12:07:01.922Z,0.98
2022-08-05T12:10:09.442Z,0.80
2022-08-05T12:13:28.020Z,0.75
2022-08-05T12:16:45.132Z,0.77
2022-08-05T12:20:26.059Z,4.45
2022-08-05T12:23:16.930Z,0.80
2022-08-05T12:26:21.186Z,1.07
2022-08-05T12:29:29.071Z,0.80
2022-08-05T12:32:51.121Z,0.80
2022-08-05T12:35:56.416Z,0.87
2022-08-05T12:39:00.286Z,0.73
2022-08-05T12:42:08.863Z,0.85
2022-08-05T12:45:13.754Z,0.73
2022-08-05T12:48:32.317Z,0.70
2022-08-05T12:52:12.660Z,0.65
2022-08-05T12:55:22.590Z,0.80
2022-08-05T12:58:49.515Z,0.70
2022-08-05T13:02:07.504Z,0.80
2022-08-05T13:05:14.384Z,0.75
2022-08-05T13:08:19.505Z,0.82
2022-08-05T13:12:02.701Z,0.85
2022-08-05T13:15:06.854Z,0.80
2022-08-05T13:18:12.535Z,0.52
2022-08-05T13:21:28.311Z,0.70
2022-08-05T13:24:57.218Z,0.73
2022-08-05T13:28:01.433Z,0.60
2022-08-05T13:31:11.096Z,0.70
2022-08-05T13:34:21.508Z,0.63
2022-08-05T13:37:45.630Z,1.02
2022-08-05T13:40:59.373Z,0.65
2022-08-05T13:44:04.563Z,0.60
2022-08-05T13:47:09.377Z,0.93
2022-08-05T13:50:16.546Z,0.90
2022-08-05T13:53:56.392Z,0.88
2022-08-05T13:56:59.622Z,0.80
2022-08-05T14:00:04.290Z,0.80
2022-08-05T14:03:27.545Z,1.10
2022-08-05T14:06:32.942Z,0.88
2022-08-05T14:09:37.657Z,0.95
2022-08-05T14:12:49.953Z,0.67
2022-08-05T14:16:04.490Z,1.40
2022-08-05T14:19:09.707Z,0.70
2022-08-05T14:22:13.109Z,0.60
2022-08-05T14:25:21.424Z,0.60
2022-08-05T14:28:26.246Z,0.95
2022-08-05T14:32:03.778Z,0.90
2022-08-05T14:34:53.833Z,1.23
2022-08-05T14:38:01.121Z,1.40
2022-08-05T14:41:07.878Z,1.60
2022-08-05T14:44:20.346Z,1.70
2022-08-05T14:48:02.947Z,1.57
2022-08-05T14:50:48.740Z,1.27
2022-08-05T14:54:27.428Z,0.70
2022-08-05T14:57:18.239Z,1.00
2022-08-05T15:00:21.481Z,0.90
2022-08-05T15:03:38.877Z,0.75
2022-08-05T15:06:42.334Z,0.50
2022-08-05T15:09:56.619Z,1.00
2022-08-05T15:13:03.857Z,0.68
2022-08-05T15:16:08.121Z,0.80
2022-08-05T15:19:23.753Z,0.70
2022-08-05T15:22:28.174Z,0.77
2022-08-05T15:25:40.929Z,0.80
2022-08-05T15:28:57.875Z,0.60
2022-08-05T15:32:02.253Z,0.50
2022-08-05T15:35:45.203Z,0.40
2022-08-05T15:38:48.766Z,0.63
2022-08-05T15:41:55.999Z,0.60
2022-08-05T15:45:03.280Z,1.30
2022-08-05T15:48:09.902Z,0.70
2022-08-05T15:52:13.061Z,0.90
2022-08-05T15:55:00.075Z,0.60
2022-08-05T15:58:03.166Z,0.55
2022-08-05T16:01:16.381Z,0.77
2022-08-05T16:04:20.615Z,0.50
2022-08-05T16:07:29.562Z,0.50
2022-08-05T16:10:32.935Z,0.73
2022-08-05T16:13:36.137Z,0.30
2022-08-05T16:16:40.606Z,0.40
2022-08-05T16:20:04.986Z,0.80
2022-08-05T16:23:08.523Z,2.75
2022-08-05T16:26:12.864Z,3.72
2022-08-05T16:29:16.859Z,2.17
2022-08-05T16:32:29.602Z,1.25
2022-08-05T16:35:41.925Z,1.60
2022-08-05T16:38:54.712Z,3.45
2022-08-05T16:42:14.697Z,1.45
2022-08-05T16:46:07.052Z,1.02
2022-08-05T16:48:45.666Z,0.40
2022-08-05T16:51:51.370Z,0.45
2022-08-05T16:54:58.107Z,0.30
2022-08-05T16:58:03.527Z,0.30
2022-08-05T17:01:12.760Z,0.52
2022-08-05T17:04:18.683Z,3.00
2022-08-05T17:07:39.378Z,5.55
2022-08-05T17:10:45.541Z,3.75
2022-08-05T17:13:48.644Z,1.48
2022-08-05T17:16:53.838Z,1.00
2022-08-05T17:19:58.367Z,0.70
2022-08-05T17:23:01.458Z,0.68
2022-08-05T17:26:05.922Z,0.68
2022-08-05T17:29:10.411Z,0.43
2022-08-05T17:32:16.681Z,0.40
2022-08-05T17:35:22.610Z,7.47
2022-08-05T17:38:25.820Z,5.40
2022-08-05T17:42:18.158Z,14.48
2022-08-05T17:44:52.948Z,8.45
2022-08-05T17:47:56.570Z,4.30
2022-08-05T17:51:01.087Z,22.02
2022-08-05T17:54:05.050Z,22.67
2022-08-05T18:00:16.220Z,7.40
2022-08-05T18:06:45.740Z,9.80
2022-08-05T18:09:59.415Z,10.80
2022-08-05T18:13:07.551Z,6.30
2022-08-05T18:16:15.306Z,3.25
2022-08-05T18:19:25.976Z,1.95
2022-08-05T18:22:36.342Z,1.33
2022-08-05T18:29:02.518Z,0.65
2022-08-05T18:32:06.901Z,0.50
2022-08-05T18:35:16.968Z,0.60
2022-08-05T18:38:25.940Z,0.73
2022-08-05T18:41:56.361Z,0.63
2022-08-05T18:44:56.530Z,0.73
2022-08-05T18:47:59.960Z,0.50
2022-08-05T18:52:04.810Z,4.00
2022-08-05T18:54:45.902Z,11.48
2022-08-05T18:57:53.518Z,14.88
2022-08-05T19:00:57.861Z,13.93
2022-08-05T19:04:01.008Z,7.68
2022-08-05T19:07:09.394Z,3.03
2022-08-05T19:10:13.895Z,2.00
2022-08-05T19:13:29.263Z,1.08
2022-08-05T19:16:35.311Z,5.90
2022-08-05T19:19:49.705Z,4.60
2022-08-05T19:22:52.967Z,5.70
2022-08-05T19:26:01.753Z,10.40
2022-08-05T19:29:07.195Z,5.28
2022-08-05T19:32:11.337Z,2.72
2022-08-05T19:35:15.552Z,1.60
2022-08-05T19:38:26.434Z,1.35
2022-08-05T19:41:58.149Z,5.30
2022-08-05T19:44:55.212Z,4.45
2022-08-05T19:47:58.861Z,3.35
2022-08-05T19:51:02.003Z,5.80
2022-08-05T19:54:21.860Z,11.35
2022-08-05T19:57:52.100Z,7.45
2022-08-05T20:00:56.403Z,2.10
2022-08-05T20:04:01.617Z,1.30
2022-08-05T20:07:10.384Z,0.80
2022-08-05T20:10:19.432Z,0.50
2022-08-05T20:13:54.862Z,0.70
2022-08-05T20:16:50.666Z,0.47
2022-08-05T20:19:56.738Z,0.50
2022-08-05T20:23:03.979Z,0.70
2022-08-05T20:26:07.701Z,0.60
2022-08-05T20:29:27.283Z,0.50
2022-08-05T20:32:31.787Z,0.60
2022-08-05T20:35:40.682Z,0.73
2022-08-05T20:38:54.654Z,0.73
2022-08-05T20:42:01.245Z,0.50
2022-08-05T20:45:08.838Z,0.75
2022-08-05T20:48:12.122Z,0.70
2022-08-05T20:51:19.773Z,1.48
2022-08-05T20:54:25.238Z,0.70
2022-08-05T20:57:43.281Z,1.20
2022-08-05T21:00:54.214Z,0.90
2022-08-05T21:03:58.000Z,0.60
2022-08-05T21:07:01.277Z,0.50
2022-08-05T21:10:09.318Z,0.90
2022-08-05T21:13:26.430Z,0.80
2022-08-05T21:16:41.706Z,0.38
2022-08-05T21:19:47.750Z,0.32
2022-08-05T21:22:53.610Z,0.60
2022-08-05T21:25:58.759Z,0.20
2022-08-05T21:29:03.513Z,0.40
2022-08-05T21:32:08.893Z,0.43
2022-08-05T21:35:18.326Z,0.50
2022-08-05T21:38:36.386Z,0.40
2022-08-05T21:41:52.373Z,0.45
2022-08-05T21:44:56.198Z,0.68
2022-08-05T21:48:01.234Z,0.47
2022-08-05T21:51:04.402Z,0.28
2022-08-05T21:54:30.920Z,0.25
2022-08-05T21:57:34.428Z,0.40
2022-08-05T22:00:38.847Z,0.30
2022-08-05T22:03:48.481Z,0.60
2022-08-05T22:06:54.812Z,0.30
2022-08-05T22:16:00.268Z,0.43
2022-08-05T22:19:15.154Z,0.30
2022-08-05T22:22:31.175Z,0.20
2022-08-05T22:26:09.922Z,0.20
2022-08-05T22:29:15.490Z,0.30
2022-08-05T22:32:20.183Z,0.47
2022-08-05T22:35:47.748Z,0.45
2022-08-05T22:38:50.722Z,0.30
2022-08-05T22:42:10.353Z,0.33
2022-08-05T22:45:15.066Z,0.40
2022-08-05T22:48:22.155Z,0.47
2022-08-05T22:52:04.579Z,0.22
2022-08-05T22:54:55.194Z,0.60
2022-08-05T22:57:58.381Z,0.50
2022-08-05T23:01:01.471Z,0.52
2022-08-05T23:04:05.494Z,0.40
2022-08-05T23:07:11.410Z,0.45
2022-08-05T23:10:19.594Z,0.45
2022-08-05T23:13:22.943Z,0.38
2022-08-05T23:16:40.394Z,0.60
2022-08-05T23:19:55.965Z,0.28
2022-08-05T23:23:05.973Z,0.60
2022-08-05T23:26:11.703Z,0.40
2022-08-05T23:29:15.688Z,0.40
2022-08-05T23:32:22.739Z,0.40
2022-08-05T23:35:28.555Z,0.65
2022-08-05T23:39:55.088Z,0.47
2022-08-05T23:42:59.585Z,0.73
2022-08-05T23:46:02.690Z,0.40
2022-08-05T23:49:16.814Z,0.60
2022-08-05T23:52:36.186Z,0.50
2022-08-05T23:55:53.393Z,0.30
2022-08-05T23:58:58.693Z,0.40
